createdAt,value
2018-06-05T00:01:19.343Z,24.37
2018-06-05T00:03:48.354Z,23.77
2018-06-05T00:06:17.305Z,24.20
2018-06-05T00:08:46.204Z,24.20
2018-06-05T00:11:15.099Z,24.60
2018-06-05T00:13:44.024Z,25.73
2018-06-05T00:16:12.945Z,24.47
2018-06-05T00:18:41.878Z,24.13
2018-06-05T00:21:10.796Z,23.97
2018-06-05T00:23:39.683Z,25.30
2018-06-05T00:26:08.612Z,25.07
2018-06-05T00:28:37.548Z,25.77
2018-06-05T00:31:06.747Z,25.20
2018-06-05T00:33:35.925Z,25.03
2018-06-05T00:36:05.118Z,24.27
2018-06-05T00:38:34.043Z,24.77
2018-06-05T00:41:02.968Z,24.93
2018-06-05T00:43:31.882Z,23.73
2018-06-05T00:46:00.821Z,24.53
2018-06-05T00:48:29.750Z,25.37
2018-06-05T00:50:58.684Z,24.40
2018-06-05T00:53:27.593Z,24.60
2018-06-05T00:55:56.499Z,24.37
2018-06-05T00:58:25.421Z,24.40
2018-06-05T01:00:54.334Z,24.03
2018-06-05T01:03:23.265Z,24.47
2018-06-05T01:05:52.194Z,24.67
2018-06-05T01:08:21.087Z,23.93
2018-06-05T01:10:50.010Z,23.77
2018-06-05T01:13:19.468Z,25.00
2018-06-05T01:15:48.611Z,26.27
2018-06-05T01:18:17.513Z,28.10
2018-06-05T01:20:46.427Z,28.30
2018-06-05T01:23:15.335Z,28.17
2018-06-05T01:25:44.250Z,28.13
2018-06-05T01:28:13.184Z,28.33
2018-06-05T01:30:42.113Z,28.23
2018-06-05T01:33:11.029Z,27.63
2018-06-05T01:35:39.950Z,28.83
2018-06-05T01:38:08.839Z,27.90
2018-06-05T01:40:37.792Z,29.63
2018-06-05T01:43:06.695Z,30.00
2018-06-05T01:45:35.622Z,29.80
2018-06-05T01:48:04.674Z,31.53
2018-06-05T01:50:33.583Z,29.57
2018-06-05T01:53:02.495Z,31.83
2018-06-05T01:55:31.400Z,30.83
2018-06-05T01:58:00.340Z,31.53
2018-06-05T02:00:29.262Z,32.23
2018-06-05T02:02:58.178Z,32.57
2018-06-05T02:05:27.122Z,31.20
2018-06-05T02:07:56.030Z,31.27
2018-06-05T02:10:24.946Z,29.47
2018-06-05T02:12:53.872Z,30.77
2018-06-05T02:15:22.862Z,31.27
2018-06-05T02:17:51.774Z,30.43
2018-06-05T02:20:20.717Z,28.93
2018-06-05T02:22:49.617Z,29.23
2018-06-05T02:25:18.537Z,28.93
2018-06-05T02:27:47.440Z,27.83
2018-06-05T02:30:16.373Z,29.60
2018-06-05T02:32:45.282Z,28.23
2018-06-05T02:35:14.183Z,27.23
2018-06-05T02:37:43.132Z,26.50
2018-06-05T02:40:12.053Z,26.17
2018-06-05T02:42:41.002Z,25.83
2018-06-05T02:45:09.927Z,25.50
2018-06-05T02:47:38.833Z,25.33
2018-06-05T02:50:07.766Z,25.97
2018-06-05T02:52:36.660Z,28.07
2018-06-05T02:55:05.607Z,25.93
2018-06-05T02:57:34.491Z,26.27
2018-06-05T03:00:07.225Z,25.97
2018-06-05T03:02:36.153Z,29.60
2018-06-05T03:05:05.070Z,30.13
2018-06-05T03:07:34.288Z,31.47
2018-06-05T03:10:03.218Z,32.37
2018-06-05T03:12:32.143Z,33.63
2018-06-05T03:15:01.114Z,33.27
2018-06-05T03:17:30.032Z,35.40
2018-06-05T03:19:58.952Z,34.13
2018-06-05T03:22:27.847Z,30.83
2018-06-05T03:24:56.781Z,32.60
2018-06-05T03:27:25.682Z,31.60
2018-06-05T03:29:54.611Z,31.27
2018-06-05T03:32:23.521Z,31.43
2018-06-05T03:34:52.438Z,30.50
2018-06-05T03:37:21.418Z,31.10
2018-06-05T03:39:50.348Z,30.03
2018-06-05T03:42:19.262Z,30.93
2018-06-05T03:44:48.197Z,29.60
2018-06-05T03:47:17.124Z,28.40
2018-06-05T03:49:46.042Z,29.40
2018-06-05T03:52:14.984Z,29.33
2018-06-05T03:54:43.878Z,27.43
2018-06-05T03:57:12.890Z,27.20
2018-06-05T03:59:41.775Z,29.10
2018-06-05T04:02:10.869Z,27.17
2018-06-05T04:04:39.832Z,29.07
2018-06-05T04:07:08.762Z,30.00
2018-06-05T04:09:38.543Z,28.53
2018-06-05T04:12:07.471Z,28.27
2018-06-05T04:14:36.429Z,27.43
2018-06-05T04:17:05.466Z,28.37
2018-06-05T04:19:34.403Z,27.53
2018-06-05T04:22:03.334Z,26.77
2018-06-05T04:24:35.936Z,26.47
2018-06-05T04:27:04.904Z,27.07
2018-06-05T04:29:33.761Z,27.97
2018-06-05T04:32:02.719Z,27.93
2018-06-05T04:34:34.812Z,27.47
2018-06-05T04:37:03.728Z,27.70
2018-06-05T04:39:32.943Z,26.57
2018-06-05T04:42:01.858Z,27.67
2018-06-05T04:44:30.755Z,27.33
2018-06-05T04:46:59.699Z,26.83
2018-06-05T04:49:28.608Z,26.43
2018-06-05T04:51:58.058Z,27.27
2018-06-05T04:54:27.110Z,26.20
2018-06-05T04:56:56.034Z,26.83
2018-06-05T04:59:24.966Z,25.57
2018-06-05T05:01:53.892Z,24.67
2018-06-05T05:04:22.837Z,26.00
2018-06-05T05:06:51.743Z,25.03
2018-06-05T05:09:21.707Z,25.83
2018-06-05T05:11:50.626Z,26.50
2018-06-05T05:14:19.566Z,26.53
2018-06-05T05:16:48.520Z,27.60
2018-06-05T05:19:17.462Z,28.07
2018-06-05T05:21:46.373Z,27.80
2018-06-05T05:24:15.291Z,29.40
2018-06-05T05:26:44.218Z,28.87
2018-06-05T05:29:13.147Z,27.27
2018-06-05T05:31:42.082Z,28.40
2018-06-05T05:34:11.014Z,27.20
2018-06-05T05:36:39.961Z,27.70
2018-06-05T05:39:08.885Z,27.43
2018-06-05T05:41:37.795Z,29.20
2018-06-05T05:44:06.714Z,27.23
2018-06-05T05:46:35.637Z,28.17
2018-06-05T05:49:04.585Z,27.50
2018-06-05T05:51:33.550Z,27.67
2018-06-05T05:54:02.503Z,26.63
2018-06-05T05:56:31.436Z,27.27
2018-06-05T05:59:00.417Z,26.03
2018-06-05T06:01:29.356Z,27.23
2018-06-05T06:03:58.597Z,25.57
2018-06-05T06:06:27.498Z,26.77
2018-06-05T06:09:00.158Z,26.17
2018-06-05T06:11:29.064Z,26.37
2018-06-05T06:13:58.028Z,24.80
2018-06-05T06:16:26.952Z,26.03
2018-06-05T06:18:55.933Z,25.37
2018-06-05T06:21:25.011Z,25.77
2018-06-05T06:23:53.924Z,26.00
2018-06-05T06:26:22.855Z,25.43
2018-06-05T06:28:51.796Z,25.20
2018-06-05T06:31:20.717Z,26.60
2018-06-05T06:33:49.668Z,25.70
2018-06-05T06:36:18.595Z,25.27
2018-06-05T06:38:47.566Z,26.07
2018-06-05T06:41:16.867Z,26.53
2018-06-05T06:43:46.966Z,29.90
2018-06-05T06:46:15.912Z,28.13
2018-06-05T06:48:44.911Z,28.03
2018-06-05T06:51:13.988Z,29.80
2018-06-05T06:53:42.926Z,30.07
2018-06-05T06:56:11.842Z,30.23
2018-06-05T06:58:40.840Z,29.23
2018-06-05T07:01:09.822Z,29.50
2018-06-05T07:03:38.898Z,28.60
2018-06-05T07:06:07.860Z,26.60
2018-06-05T07:08:36.788Z,29.43
2018-06-05T07:11:05.723Z,28.50
2018-06-05T07:13:34.625Z,27.00
2018-06-05T07:16:03.569Z,28.17
2018-06-05T07:18:32.482Z,29.30
2018-06-05T07:21:01.412Z,30.87
2018-06-05T07:23:30.343Z,31.10
2018-06-05T07:25:59.257Z,30.77
2018-06-05T07:28:28.169Z,31.50
2018-06-05T07:30:58.097Z,30.53
2018-06-05T07:33:27.045Z,32.43
2018-06-05T07:35:55.985Z,32.17
2018-06-05T07:38:24.887Z,32.53
2018-06-05T07:40:53.826Z,34.40
2018-06-05T07:43:22.777Z,33.13
2018-06-05T07:45:51.682Z,33.27
2018-06-05T07:48:20.599Z,35.37
2018-06-05T07:50:49.504Z,34.60
2018-06-05T07:53:18.445Z,34.90
2018-06-05T07:55:47.380Z,34.80
2018-06-05T07:58:16.298Z,34.87
2018-06-05T08:00:45.229Z,34.53
2018-06-05T08:03:14.156Z,35.17
2018-06-05T08:05:43.092Z,32.63
2018-06-05T08:08:12.022Z,34.80
2018-06-05T08:10:40.952Z,32.63
2018-06-05T08:13:10.224Z,32.60
2018-06-05T08:15:39.139Z,35.03
2018-06-05T08:18:08.119Z,34.73
2018-06-05T08:20:37.046Z,35.27
2018-06-05T08:23:05.951Z,34.73
2018-06-05T08:25:34.893Z,34.57
2018-06-05T08:28:03.819Z,35.33
2018-06-05T08:30:32.777Z,34.47
2018-06-05T08:33:01.705Z,32.87
2018-06-05T08:35:30.730Z,31.40
2018-06-05T08:37:59.752Z,30.60
2018-06-05T08:40:28.578Z,30.53
2018-06-05T08:43:00.740Z,31.77
2018-06-05T08:45:29.666Z,28.90
2018-06-05T08:47:58.692Z,32.23
2018-06-05T08:50:27.868Z,31.87
2018-06-05T08:52:56.773Z,30.27
2018-06-05T08:55:25.741Z,30.63
2018-06-05T08:57:54.686Z,29.30
2018-06-05T09:00:23.594Z,28.90
2018-06-05T09:02:52.517Z,29.83
2018-06-05T09:05:21.471Z,30.50
2018-06-05T09:07:50.346Z,30.47
2018-06-05T09:10:19.265Z,32.77
2018-06-05T09:12:48.168Z,33.27
2018-06-05T09:15:17.085Z,33.33
2018-06-05T09:17:46.013Z,33.90
2018-06-05T09:20:14.945Z,34.97
2018-06-05T09:22:43.863Z,35.20
2018-06-05T09:25:12.791Z,36.60
2018-06-05T09:27:41.699Z,36.73
2018-06-05T09:30:10.647Z,36.63
2018-06-05T09:32:39.566Z,36.83
2018-06-05T09:35:08.467Z,35.83
2018-06-05T09:37:37.388Z,35.73
2018-06-05T09:40:06.351Z,32.90
2018-06-05T09:42:35.270Z,35.03
2018-06-05T09:45:04.227Z,34.33
2018-06-05T09:47:33.127Z,34.37
2018-06-05T09:50:02.114Z,34.03
2018-06-05T09:52:31.042Z,33.77
2018-06-05T09:54:59.972Z,33.00
2018-06-05T09:57:28.894Z,34.13
2018-06-05T09:59:58.852Z,33.23
2018-06-05T10:02:27.780Z,34.53
2018-06-05T10:04:56.691Z,34.93
2018-06-05T10:07:25.652Z,35.03
2018-06-05T10:09:54.621Z,37.03
2018-06-05T10:12:23.527Z,39.33
2018-06-05T10:14:52.465Z,41.03
2018-06-05T10:17:21.379Z,39.47
2018-06-05T10:19:50.291Z,46.30
2018-06-05T10:22:19.215Z,44.37
2018-06-05T10:24:48.129Z,42.93
2018-06-05T10:27:20.277Z,41.93
2018-06-05T10:29:49.212Z,42.90
2018-06-05T10:32:18.127Z,42.23
2018-06-05T10:34:47.096Z,42.47
2018-06-05T10:37:16.007Z,43.13
2018-06-05T10:39:45.115Z,43.87
2018-06-05T10:42:14.054Z,43.40
2018-06-05T10:44:42.954Z,41.47
2018-06-05T10:47:11.899Z,40.93
2018-06-05T10:49:41.302Z,42.03
2018-06-05T10:52:10.223Z,44.53
2018-06-05T10:54:39.141Z,41.93
2018-06-05T10:57:08.058Z,44.10
2018-06-05T10:59:36.967Z,45.60
2018-06-05T11:02:06.648Z,46.23
2018-06-05T11:04:35.628Z,44.83
2018-06-05T11:07:04.547Z,44.87
2018-06-05T11:09:33.447Z,44.20
2018-06-05T11:12:02.390Z,43.03
2018-06-05T11:14:31.298Z,40.43
2018-06-05T11:17:00.230Z,40.97
2018-06-05T11:19:29.180Z,43.70
2018-06-05T11:21:58.110Z,46.60
2018-06-05T11:24:27.023Z,45.83
2018-06-05T11:26:55.929Z,45.57
2018-06-05T11:29:24.901Z,43.83
2018-06-05T11:31:53.811Z,48.30
2018-06-05T11:34:22.748Z,46.90
2018-06-05T11:36:51.716Z,47.37
2018-06-05T11:39:20.752Z,51.50
2018-06-05T11:41:49.702Z,49.67
2018-06-05T11:44:18.674Z,48.80
2018-06-05T11:46:51.465Z,49.03
2018-06-05T11:49:20.739Z,50.47
2018-06-05T11:51:49.682Z,51.17
2018-06-05T11:54:18.662Z,50.77
2018-06-05T11:56:47.567Z,49.90
2018-06-05T11:59:16.521Z,48.93
2018-06-05T12:01:45.461Z,47.67
2018-06-05T12:04:14.354Z,48.80
2018-06-05T12:06:43.269Z,49.33
2018-06-05T12:09:12.691Z,48.20
2018-06-05T12:11:41.611Z,53.03
2018-06-05T12:14:10.562Z,48.43
2018-06-05T12:16:39.461Z,46.57
2018-06-05T12:19:08.730Z,46.33
2018-06-05T12:21:38.015Z,46.17
2018-06-05T12:24:06.975Z,48.03
2018-06-05T12:26:35.929Z,45.53
2018-06-05T12:29:05.018Z,49.50
2018-06-05T12:31:33.954Z,48.20
2018-06-05T12:34:02.901Z,50.00
2018-06-05T12:36:31.830Z,48.77
2018-06-05T12:39:00.785Z,49.83
2018-06-05T12:41:30.026Z,48.60
2018-06-05T12:43:59.291Z,49.83
2018-06-05T12:46:28.515Z,51.97
2018-06-05T12:48:57.489Z,51.13
2018-06-05T12:51:26.391Z,51.30
2018-06-05T12:53:55.336Z,51.03
2018-06-05T12:56:24.261Z,49.30
2018-06-05T12:58:53.209Z,50.97
2018-06-05T13:01:22.318Z,50.47
2018-06-05T13:03:51.287Z,49.70
2018-06-05T13:06:20.202Z,51.63
2018-06-05T13:08:49.132Z,53.50
2018-06-05T13:11:18.056Z,55.47
2018-06-05T13:13:47.004Z,53.67
2018-06-05T13:16:15.919Z,61.53
2018-06-05T13:18:44.861Z,56.73
2018-06-05T13:21:16.295Z,59.10
2018-06-05T13:23:45.283Z,56.47
2018-06-05T13:26:14.215Z,61.43
2018-06-05T13:28:43.205Z,58.90
2018-06-05T13:31:12.146Z,57.83
2018-06-05T13:33:44.509Z,56.77
2018-06-05T13:36:13.434Z,55.13
2018-06-05T13:38:42.375Z,52.53
2018-06-05T13:41:11.522Z,54.67
2018-06-05T13:43:40.455Z,54.10
2018-06-05T13:46:10.135Z,55.23
2018-06-05T13:48:39.383Z,53.93
2018-06-05T13:51:08.363Z,53.63
2018-06-05T13:53:37.311Z,57.93
2018-06-05T13:56:06.216Z,55.50
2018-06-05T13:58:35.473Z,57.37
2018-06-05T14:01:04.416Z,53.50
2018-06-05T14:03:33.331Z,57.83
2018-06-05T14:06:02.273Z,53.03
2018-06-05T14:08:31.243Z,51.50
2018-06-05T14:11:00.134Z,47.43
2018-06-05T14:13:29.070Z,55.93
2018-06-05T14:15:57.989Z,51.27
2018-06-05T14:18:26.916Z,52.20
2018-06-05T14:20:55.885Z,50.17
2018-06-05T14:23:24.801Z,50.50
2018-06-05T14:25:53.707Z,51.13
2018-06-05T14:28:22.643Z,50.17
2018-06-05T14:30:51.590Z,46.90
2018-06-05T14:33:20.489Z,49.73
2018-06-05T14:35:49.444Z,46.77
2018-06-05T14:38:18.399Z,48.57
2018-06-05T14:40:47.383Z,50.20
2018-06-05T14:43:17.062Z,52.27
2018-06-05T14:45:45.994Z,50.23
2018-06-05T14:48:15.228Z,43.73
2018-06-05T14:50:44.208Z,47.13
2018-06-05T14:53:13.141Z,45.57
2018-06-05T14:55:42.077Z,47.60
2018-06-05T14:58:11.233Z,42.17
2018-06-05T15:00:40.184Z,46.33
2018-06-05T15:03:09.124Z,43.60
2018-06-05T15:05:38.428Z,42.00
2018-06-05T15:08:07.350Z,44.83
2018-06-05T15:10:36.576Z,42.30
2018-06-05T15:13:06.330Z,44.13
2018-06-05T15:15:35.200Z,42.57
2018-06-05T15:18:04.127Z,38.87
2018-06-05T15:20:33.030Z,39.40
2018-06-05T15:23:02.772Z,38.07
2018-06-05T15:25:31.771Z,32.57
2018-06-05T15:28:04.575Z,32.13
2018-06-05T15:30:33.946Z,33.90
2018-06-05T15:33:09.593Z,32.83
2018-06-05T15:35:38.683Z,32.10
2018-06-05T15:38:07.643Z,30.67
2018-06-05T15:40:36.631Z,28.50
2018-06-05T15:43:05.628Z,31.53
2018-06-05T15:45:34.576Z,28.60
2018-06-05T15:48:03.601Z,30.50
2018-06-05T15:50:32.589Z,29.37
2018-06-05T15:53:01.442Z,26.57
2018-06-05T15:55:30.368Z,28.67
2018-06-05T15:57:59.343Z,30.87
2018-06-05T16:00:28.242Z,25.93
2018-06-05T16:02:57.295Z,28.60
2018-06-05T16:05:26.194Z,28.50
2018-06-05T16:07:55.134Z,26.87
2018-06-05T16:10:24.085Z,27.73
2018-06-05T16:12:53.001Z,28.27
2018-06-05T16:15:21.912Z,28.57
2018-06-05T16:17:50.852Z,24.47
2018-06-05T16:20:19.758Z,28.30
2018-06-05T16:22:48.657Z,26.13
2018-06-05T16:25:17.605Z,27.23
2018-06-05T16:27:46.553Z,27.00
2018-06-05T16:30:15.538Z,21.73
2018-06-05T16:32:44.482Z,25.93
2018-06-05T16:35:13.398Z,24.57
2018-06-05T16:37:42.305Z,27.37
2018-06-05T16:40:14.869Z,24.77
2018-06-05T16:42:43.811Z,23.60
2018-06-05T16:45:12.904Z,28.17
2018-06-05T16:47:42.159Z,24.73
2018-06-05T16:50:11.088Z,25.53
2018-06-05T16:52:40.311Z,24.70
2018-06-05T16:55:09.261Z,25.33
2018-06-05T16:57:38.191Z,25.40
2018-06-05T17:00:07.149Z,26.23
2018-06-05T17:02:36.172Z,25.00
2018-06-05T17:05:05.090Z,25.30
2018-06-05T17:07:34.012Z,25.10
2018-06-05T17:10:02.922Z,23.83
2018-06-05T17:12:31.869Z,27.03
2018-06-05T17:15:00.788Z,26.60
2018-06-05T17:17:32.825Z,27.70
2018-06-05T17:20:02.671Z,25.33
2018-06-05T17:22:31.610Z,25.77
2018-06-05T17:25:00.525Z,25.50
2018-06-05T17:27:29.557Z,26.20
2018-06-05T17:29:58.390Z,26.70
2018-06-05T17:32:27.353Z,26.63
2018-06-05T17:34:56.313Z,26.53
2018-06-05T17:37:25.230Z,28.20
2018-06-05T17:39:54.135Z,26.07
2018-06-05T17:42:23.059Z,25.87
2018-06-05T17:44:52.025Z,29.20
2018-06-05T17:47:20.947Z,26.40
2018-06-05T17:49:49.870Z,27.67
2018-06-05T17:52:21.890Z,26.17
2018-06-05T17:54:50.827Z,26.17
2018-06-05T17:57:19.983Z,29.33
2018-06-05T17:59:48.992Z,25.50
2018-06-05T18:02:17.961Z,29.43
2018-06-05T18:04:46.886Z,27.07
2018-06-05T18:07:15.802Z,26.77
2018-06-05T18:09:44.783Z,26.77
2018-06-05T18:12:13.747Z,26.13
2018-06-05T18:14:42.634Z,27.77
2018-06-05T18:17:11.566Z,24.77
2018-06-05T18:19:40.538Z,24.67
2018-06-05T18:22:09.425Z,25.83
2018-06-05T18:24:38.371Z,25.43
2018-06-05T18:27:07.270Z,26.97
2018-06-05T18:29:36.208Z,24.30
2018-06-05T18:32:05.181Z,26.63
2018-06-05T18:34:34.080Z,27.67
2018-06-05T18:37:03.118Z,27.07
2018-06-05T18:39:32.096Z,26.77
2018-06-05T18:42:01.103Z,27.90
2018-06-05T18:44:30.106Z,29.10
2018-06-05T18:46:59.136Z,28.33
2018-06-05T18:49:28.071Z,29.57
2018-06-05T18:51:56.990Z,30.37
2018-06-05T18:54:25.935Z,28.03
2018-06-05T18:56:54.898Z,27.10
2018-06-05T18:59:23.811Z,26.03
2018-06-05T19:01:52.719Z,27.27
2018-06-05T19:04:21.665Z,28.13
2018-06-05T19:06:50.578Z,26.07
2018-06-05T19:09:22.597Z,26.47
2018-06-05T19:11:51.509Z,25.73
2018-06-05T19:14:20.452Z,25.93
2018-06-05T19:16:49.387Z,23.80
2018-06-05T19:19:18.327Z,24.57
2018-06-05T19:21:47.249Z,24.67
2018-06-05T19:24:16.221Z,22.97
2018-06-05T19:26:45.124Z,24.40
2018-06-05T19:29:14.202Z,23.97
2018-06-05T19:31:43.083Z,25.73
2018-06-05T19:34:12.016Z,23.67
2018-06-05T19:36:40.920Z,24.40
2018-06-05T19:39:09.890Z,23.37
2018-06-05T19:41:38.954Z,23.80
2018-06-05T19:44:08.024Z,25.67
2018-06-05T19:46:37.094Z,24.10
2018-06-05T19:49:05.963Z,23.83
2018-06-05T19:51:34.971Z,24.20
2018-06-05T19:54:03.992Z,24.80
2018-06-05T19:56:33.270Z,23.27
2018-06-05T19:59:02.201Z,24.30
2018-06-05T20:01:31.116Z,24.07
2018-06-05T20:04:00.015Z,24.03
2018-06-05T20:06:28.950Z,24.53
2018-06-05T20:08:57.875Z,23.77
2018-06-05T20:11:26.903Z,23.10
2018-06-05T20:13:55.807Z,24.50
2018-06-05T20:16:24.907Z,25.07
2018-06-05T20:18:53.839Z,23.53
2018-06-05T20:21:22.878Z,24.23
2018-06-05T20:23:52.051Z,24.07
2018-06-05T20:26:20.974Z,23.63
2018-06-05T20:28:50.300Z,23.43
2018-06-05T20:31:19.257Z,23.17
2018-06-05T20:33:48.502Z,23.50
2018-06-05T20:36:17.588Z,22.90
2018-06-05T20:38:46.527Z,24.03
2018-06-05T20:41:15.487Z,23.80
2018-06-05T20:43:44.418Z,24.83
2018-06-05T20:46:13.470Z,24.47
2018-06-05T20:48:42.615Z,22.17
2018-06-05T20:51:11.847Z,24.23
2018-06-05T20:53:40.813Z,24.07
2018-06-05T20:56:09.895Z,24.87
2018-06-05T20:58:43.152Z,24.87
2018-06-05T21:01:12.612Z,24.67
2018-06-05T21:03:42.034Z,24.87
2018-06-05T21:06:12.116Z,24.10
2018-06-05T21:08:42.174Z,25.03
2018-06-05T21:11:11.156Z,25.07
2018-06-05T21:13:40.188Z,24.23
2018-06-05T21:16:09.119Z,24.90
2018-06-05T21:18:38.101Z,25.47
2018-06-05T21:21:07.121Z,23.63
2018-06-05T21:23:36.107Z,24.77
2018-06-05T21:26:05.081Z,25.30
2018-06-05T21:28:34.164Z,23.90
2018-06-05T21:31:03.112Z,25.93
2018-06-05T21:33:32.063Z,24.33
2018-06-05T21:36:01.213Z,25.67
2018-06-05T21:38:30.209Z,25.30
2018-06-05T21:40:59.210Z,24.73
2018-06-05T21:43:28.140Z,24.23
2018-06-05T21:45:57.042Z,25.47
2018-06-05T21:48:25.972Z,25.30
2018-06-05T21:50:54.933Z,25.00
2018-06-05T21:53:23.849Z,25.70
2018-06-05T21:55:53.021Z,25.63
2018-06-05T21:58:21.939Z,25.33
2018-06-05T22:00:50.855Z,26.50
2018-06-05T22:03:19.978Z,25.70
2018-06-05T22:05:48.918Z,26.57
2018-06-05T22:08:18.010Z,27.00
2018-06-05T22:10:46.912Z,26.73
2018-06-05T22:13:16.047Z,26.90
2018-06-05T22:15:45.027Z,26.77
2018-06-05T22:18:13.983Z,27.13
2018-06-05T22:20:43.707Z,26.87
2018-06-05T22:23:12.636Z,26.83
2018-06-05T22:25:41.569Z,26.50
2018-06-05T22:28:10.808Z,26.23
2018-06-05T22:30:39.719Z,26.27
2018-06-05T22:33:08.657Z,26.87
2018-06-05T22:35:37.569Z,26.30
2018-06-05T22:38:06.582Z,27.07
2018-06-05T22:40:35.624Z,26.10
2018-06-05T22:43:04.569Z,27.07
2018-06-05T22:45:33.539Z,28.23
2018-06-05T22:48:02.484Z,27.07
2018-06-05T22:50:31.421Z,28.33
2018-06-05T22:53:00.356Z,29.60
2018-06-05T22:55:29.292Z,28.37
2018-06-05T22:57:58.225Z,29.43
2018-06-05T23:00:31.760Z,28.33
2018-06-05T23:03:00.703Z,29.47
2018-06-05T23:05:29.615Z,28.27
2018-06-05T23:07:58.706Z,28.23
2018-06-05T23:10:27.636Z,28.97
2018-06-05T23:12:56.589Z,28.07
2018-06-05T23:15:25.511Z,27.80
2018-06-05T23:17:54.418Z,28.27
2018-06-05T23:20:23.357Z,28.47
2018-06-05T23:22:52.266Z,29.43
2018-06-05T23:25:21.187Z,28.40
2018-06-05T23:27:50.118Z,28.83
2018-06-05T23:30:19.027Z,30.27
2018-06-05T23:32:47.950Z,28.83
2018-06-05T23:35:16.897Z,29.47
2018-06-05T23:37:45.819Z,29.70
2018-06-05T23:40:14.764Z,29.67
2018-06-05T23:42:43.686Z,30.20
2018-06-05T23:45:12.603Z,29.93
2018-06-05T23:47:41.553Z,29.30
2018-06-05T23:50:10.464Z,30.80
2018-06-05T23:52:39.371Z,29.83
2018-06-05T23:55:08.275Z,29.23
2018-06-05T23:57:37.183Z,29.07
